METAR Data
IDs: Format: Raw Decoded Include TAF

Data at: 2235 UTC 02 Aug 2021

KDAG 022150Z AUTO 09005KT 10SM CLR 41/03 A2998 RMK AO2 SLP119 T04110033
KDAG 022050Z AUTO 10007KT 10SM CLR 41/04 A3000 RMK AO2 SLP127 T04060039
KDAG 021950Z AUTO 04004KT 10SM CLR 40/03 A3003 RMK AO2 SLP135 T04000028
KDAG 021850Z AUTO 28006KT 10SM 38/02 A3006 RMK AO2 SLP145 T03780022
KDAG 021750Z AUTO 30012KT 10SM CLR 37/01 A3008 RMK AO2 SLP152 T03670011 10367 20256 58006
KDAG 021650Z AUTO 29011KT 10SM CLR 34/02 A3009 RMK AO2 SLP157 T03440022
KDAG 021550Z AUTO 28012KT 10SM CLR 32/03 A3009 RMK AO2 SLP159 T03170028
KDAG 021450Z AUTO 28009KT 10SM CLR 29/03 A3010 RMK AO2 SLP160 T02940033 51012
KDAG 021350Z AUTO 27008KT 10SM CLR 27/03 A3009 RMK AO2 SLP157 T02670033
KDAG 021250Z AUTO 27009KT 10SM CLR 26/02 A3007 RMK AO2 SLP152 T02560022
KDAG 021150Z AUTO 27007KT 10SM CLR 26/02 A3006 RMK AO2 SLP147 T02610022 10333 20261 53006
KDAG 021050Z AUTO 26009KT 10SM CLR 28/02 A3005 RMK AO2 SLP143 T02780017
KDAG 020950Z AUTO 25008KT 10SM CLR 28/02 A3005 RMK AO2 SLP142 T02780017
KDAG 020850Z AUTO 30012KT 10SM CLR 29/02 A3004 RMK AO2 SLP141 T02890017 51005
KDAG 020750Z AUTO 30011KT 10SM CLR 31/02 A3004 RMK AO2 SLP140 T03060017 404110250
KDAG 020650Z AUTO 29013KT 10SM CLR 32/01 A3003 RMK AO2 SLP137 T03220011
KDAG 020550Z AUTO 27011G21KT 10SM CLR 33/02 A3003 RMK AO2 SLP135 T03330022 10406 20322 51021
KDAG 020450Z AUTO 28010KT 10SM CLR 33/00 A3002 RMK AO2 SLP135 T03280000
KDAG 020350Z AUTO 28011KT 10SM CLR 36/03 A2999 RMK AO2 SLP124 T03560033
KDAG 020250Z AUTO 24017KT 10SM CLR 37/06 A2996 RMK AO2 SLP113 T03720056 55001
KDAG 020150Z AUTO 31007KT 10SM CLR 39/06 A2994 RMK AO2 SLP107 T03940061
KDAG 020050Z AUTO 21004KT 10SM CLR 39/07 A2995 RMK AO2 SLP110 T03890067
KDAG 012350Z AUTO 29010KT 10SM CLR 41/07 A2997 RMK AO2 SLP115 T04060072 10411 20350 56018
KDAG 012250Z AUTO 34005KT 10SM CLR 41/07 A2998 RMK AO2 SLP121 T04110067
KDAG 012150Z AUTO 03008KT 340V060 10SM CLR 40/08 A3000 RMK AO2 SLP127 T04000078
KDAG 012050Z AUTO 06006KT 10SM CLR 39/08 A3002 RMK AO2 SLP134 T03890083 56020
KDAG 011950Z AUTO 00000KT 10SM CLR 38/08 A3004 RMK AO2 SLP140 T03780078
KDAG 011850Z AUTO VRB03KT 10SM CLR 37/07 A3006 RMK AO2 SLP148 T03670067
KDAG 011750Z AUTO 36003KT 10SM CLR 35/06 A3008 RMK AO2 SLP155 T03500056 10350 20250 50000
KDAG 011656Z AUTO 15003KT 10SM CLR 34/04 A3012
KDAG 011650Z AUTO 31007KT 10SM CLR 33/04 A3009 RMK AO2 SLP156 T03330039
KDAG 011550Z AUTO 30011KT 10SM CLR 32/03 A3009 RMK AO2 SLP159 T03170033
KDAG 011450Z AUTO 28009KT 10SM CLR 29/04 A3008 RMK AO2 SLP156 T02890039 53015
KDAG 011355Z AUTO 32003KT 10SM CLR 21/00 A3011
KDAG 011350Z AUTO 25009KT 10SM CLR 27/03 A3007 RMK AO2 SLP150 T02720033
KDAG 011250Z AUTO 25010KT 10SM CLR 26/03 A3005 RMK AO2 SLP146 T02610033
KDAG 011150Z AUTO 30010KT 10SM CLR 26/03 A3004 RMK AO2 SLP142 T02610033 10333 20256 53006
KDAG 011050Z AUTO 27010KT 10SM CLR 27/03 A3003 RMK AO2 SLP137 T02670033